createdAt,value
2019-03-12T00:00:17.290Z,37.35
2019-03-12T00:01:17.244Z,38.20
2019-03-12T00:02:17.201Z,38.56
2019-03-12T00:03:17.157Z,39.03
2019-03-12T00:04:17.115Z,39.24
2019-03-12T00:05:17.073Z,38.58
2019-03-12T00:06:17.030Z,39.90
2019-03-12T00:07:16.988Z,39.62
2019-03-12T00:08:16.949Z,39.72
2019-03-12T00:09:16.898Z,40.00
2019-03-12T00:10:16.863Z,39.81
2019-03-12T00:11:16.816Z,40.85
2019-03-12T00:12:16.776Z,40.28
2019-03-12T00:13:16.727Z,39.72
2019-03-12T00:14:16.689Z,39.53
2019-03-12T00:15:16.653Z,39.53
2019-03-12T00:16:16.597Z,39.15
2019-03-12T00:17:16.561Z,39.34
2019-03-12T00:18:16.517Z,39.34
2019-03-12T00:19:16.473Z,39.15
2019-03-12T00:20:16.431Z,38.94
2019-03-12T00:21:16.382Z,39.62
2019-03-12T00:22:16.342Z,40.17
2019-03-12T00:23:16.300Z,39.89
2019-03-12T00:24:16.252Z,39.89
2019-03-12T00:25:16.214Z,40.64
2019-03-12T00:26:16.170Z,39.41
2019-03-12T00:27:16.124Z,39.98
2019-03-12T00:28:16.080Z,40.83
2019-03-12T00:29:16.043Z,40.55
2019-03-12T00:30:16.049Z,41.78
2019-03-12T00:31:15.954Z,42.16
2019-03-12T00:32:15.913Z,42.92
2019-03-12T00:33:15.865Z,43.11
2019-03-12T00:34:15.824Z,43.11
2019-03-12T00:35:15.782Z,43.39
2019-03-12T00:36:15.740Z,43.20
2019-03-12T00:37:15.701Z,44.53
2019-03-12T00:38:15.653Z,43.96
2019-03-12T00:39:15.610Z,44.72
2019-03-12T00:40:15.569Z,45.86
2019-03-12T00:41:15.520Z,46.04
2019-03-12T00:42:15.478Z,47.20
2019-03-12T00:43:15.437Z,48.51
2019-03-12T00:44:15.401Z,48.89
2019-03-12T00:45:15.351Z,49.36
2019-03-12T00:46:15.308Z,49.74
2019-03-12T00:47:15.262Z,50.40
2019-03-12T00:48:15.218Z,50.24
2019-03-12T00:49:15.178Z,50.71
2019-03-12T00:50:15.137Z,50.78
2019-03-12T00:51:15.098Z,51.28
2019-03-12T00:52:15.049Z,52.58
2019-03-12T00:53:15.004Z,51.66
2019-03-12T00:54:14.962Z,51.28
2019-03-12T00:55:15.008Z,51.66
2019-03-12T00:56:14.879Z,51.26
2019-03-12T00:57:14.833Z,51.92
2019-03-12T00:58:14.788Z,51.95
2019-03-12T00:59:14.748Z,52.33
2019-03-12T01:00:14.702Z,52.51
2019-03-12T01:01:14.664Z,53.27
2019-03-12T01:02:14.621Z,52.51
2019-03-12T01:03:14.582Z,51.85
2019-03-12T01:04:14.535Z,52.14
2019-03-12T01:05:14.489Z,51.95
2019-03-12T01:06:14.444Z,51.26
2019-03-12T01:07:14.401Z,52.42
2019-03-12T01:08:14.362Z,52.61
2019-03-12T01:09:14.319Z,51.82
2019-03-12T01:10:14.287Z,51.82
2019-03-12T01:11:14.230Z,51.37
2019-03-12T01:12:14.184Z,50.52
2019-03-12T01:13:14.143Z,50.49
2019-03-12T01:14:14.104Z,51.35
2019-03-12T01:15:14.062Z,51.64
2019-03-12T01:16:14.029Z,51.64
2019-03-12T01:17:13.972Z,51.92
2019-03-12T01:18:14.073Z,52.58
2019-03-12T01:19:13.882Z,52.01
2019-03-12T01:20:13.846Z,51.45
2019-03-12T01:21:13.798Z,51.16
2019-03-12T01:22:13.758Z,51.35
2019-03-12T01:23:13.717Z,51.54
2019-03-12T01:24:13.668Z,50.69
2019-03-12T01:25:13.633Z,51.54
2019-03-12T01:26:13.585Z,51.35
2019-03-12T01:27:13.544Z,51.26
2019-03-12T01:28:13.501Z,50.59
2019-03-12T01:29:13.456Z,49.46
2019-03-12T01:30:13.412Z,47.66
2019-03-12T01:31:13.365Z,48.60
2019-03-12T01:32:13.328Z,49.17
2019-03-12T01:33:13.281Z,49.65
2019-03-12T01:34:13.240Z,49.46
2019-03-12T01:35:13.199Z,49.08
2019-03-12T01:36:21.797Z,49.36
2019-03-12T01:38:26.589Z,47.28
2019-03-12T01:39:17.499Z,46.99
2019-03-12T01:40:17.450Z,47.47
2019-03-12T01:41:26.054Z,48.51
2019-03-12T01:43:19.832Z,47.56
2019-03-12T01:44:10.669Z,47.66
2019-03-12T01:45:19.265Z,47.47
2019-03-12T01:47:15.000Z,49.36
2019-03-12T01:48:14.957Z,50.21
2019-03-12T01:49:14.916Z,49.27
2019-03-12T01:50:14.867Z,48.41
2019-03-12T01:51:14.827Z,48.41
2019-03-12T01:52:14.784Z,48.60
2019-03-12T01:53:14.742Z,48.89
2019-03-12T01:54:14.699Z,49.08
2019-03-12T01:55:14.717Z,46.52
2019-03-12T01:56:14.609Z,49.08
2019-03-12T01:57:14.565Z,48.79
2019-03-12T01:58:14.757Z,47.85
2019-03-12T01:59:14.480Z,45.67
2019-03-12T02:00:14.439Z,45.86
2019-03-12T02:01:14.398Z,46.23
2019-03-12T02:02:14.353Z,45.57
2019-03-12T02:03:14.308Z,45.57
2019-03-12T02:04:14.267Z,45.48
2019-03-12T02:05:14.217Z,45.19
2019-03-12T02:06:14.180Z,45.67
2019-03-12T02:07:14.135Z,46.61
2019-03-12T02:08:14.091Z,48.51
2019-03-12T02:09:14.044Z,49.08
2019-03-12T02:10:14.003Z,48.41
2019-03-12T02:11:13.961Z,47.37
2019-03-12T02:12:13.927Z,46.04
2019-03-12T02:13:13.877Z,47.66
2019-03-12T02:14:13.839Z,49.55
2019-03-12T02:15:13.793Z,50.40
2019-03-12T02:16:13.750Z,50.69
2019-03-12T02:17:13.703Z,52.48
2019-03-12T02:18:13.655Z,52.68
2019-03-12T02:19:13.614Z,51.73
2019-03-12T02:20:13.575Z,52.01
2019-03-12T02:21:13.531Z,52.39
2019-03-12T02:22:13.487Z,51.54
2019-03-12T02:23:13.445Z,50.78
2019-03-12T02:24:13.401Z,49.84
2019-03-12T02:25:13.360Z,51.82
2019-03-12T02:26:13.316Z,51.92
2019-03-12T02:27:13.274Z,50.97
2019-03-12T02:28:13.227Z,51.82
2019-03-12T02:29:13.184Z,51.45
2019-03-12T02:30:13.141Z,50.40
2019-03-12T02:31:13.135Z,49.74
2019-03-12T02:32:13.061Z,48.79
2019-03-12T02:33:13.015Z,49.84
2019-03-12T02:34:12.980Z,48.79
2019-03-12T02:35:12.934Z,47.09
2019-03-12T02:36:12.883Z,46.80
2019-03-12T02:37:12.839Z,47.85
2019-03-12T02:38:12.797Z,46.23
2019-03-12T02:39:12.752Z,45.57
2019-03-12T02:40:12.710Z,44.13
2019-03-12T02:41:12.663Z,43.46
2019-03-12T02:42:12.882Z,42.04
2019-03-12T02:43:12.582Z,40.08
2019-03-12T02:44:12.542Z,39.49
2019-03-12T02:45:12.502Z,39.29
2019-03-12T02:46:12.454Z,37.23
2019-03-12T02:47:12.431Z,35.81
2019-03-12T02:48:12.363Z,35.53
2019-03-12T02:49:12.318Z,34.86
2019-03-12T02:50:12.274Z,35.43
2019-03-12T02:51:12.233Z,34.67
2019-03-12T02:52:12.192Z,33.25
2019-03-12T02:53:12.152Z,33.16
2019-03-12T02:54:12.117Z,32.87
2019-03-12T02:55:12.101Z,31.83
2019-03-12T02:56:12.019Z,31.55
2019-03-12T02:57:11.980Z,31.45
2019-03-12T02:58:11.939Z,30.60
2019-03-12T02:59:11.907Z,29.56
2019-03-12T03:00:11.844Z,29.94
2019-03-12T03:01:11.797Z,29.75
2019-03-12T03:02:11.761Z,29.75
2019-03-12T03:03:11.713Z,30.13
2019-03-12T03:04:11.684Z,29.56
2019-03-12T03:05:11.633Z,29.94
2019-03-12T03:06:11.586Z,30.22
2019-03-12T03:07:11.546Z,28.42
2019-03-12T03:08:11.498Z,28.61
2019-03-12T03:09:11.456Z,28.89
2019-03-12T03:10:11.416Z,28.80
2019-03-12T03:11:11.373Z,28.61
2019-03-12T03:12:11.325Z,28.99
2019-03-12T03:13:11.284Z,28.89
2019-03-12T03:14:11.241Z,29.08
2019-03-12T03:15:11.197Z,29.37
2019-03-12T03:16:11.152Z,29.46
2019-03-12T03:17:11.110Z,30.51
2019-03-12T03:18:11.080Z,30.69
2019-03-12T03:19:11.025Z,29.75
2019-03-12T03:20:10.998Z,29.94
2019-03-12T03:21:10.940Z,29.37
2019-03-12T03:22:10.891Z,29.84
2019-03-12T03:23:10.849Z,29.94
2019-03-12T03:24:10.807Z,29.37
2019-03-12T03:25:10.771Z,28.70
2019-03-12T03:26:10.717Z,29.56
2019-03-12T03:27:10.675Z,30.32
2019-03-12T03:28:10.634Z,29.65
2019-03-12T03:29:10.601Z,29.27
2019-03-12T03:43:53.991Z,21.41
2019-03-12T03:44:53.940Z,22.74
2019-03-12T03:45:53.881Z,23.11
2019-03-12T03:46:53.831Z,23.87
2019-03-12T03:47:53.782Z,23.40
2019-03-12T03:48:53.733Z,21.50
2019-03-12T03:49:53.688Z,21.60
2019-03-12T03:50:53.648Z,22.36
2019-03-12T03:51:53.604Z,20.75
2019-03-12T03:52:53.560Z,20.37
2019-03-12T03:53:53.513Z,20.18
2019-03-12T03:54:53.468Z,19.51
2019-03-12T03:55:53.429Z,18.48
2019-03-12T03:56:53.385Z,16.58
2019-03-12T03:57:53.353Z,15.06
2019-03-12T03:58:53.295Z,14.50
2019-03-12T03:59:53.260Z,13.36
2019-03-12T04:00:53.209Z,12.41
2019-03-12T04:01:53.165Z,11.08
2019-03-12T04:02:53.119Z,9.67
2019-03-12T04:03:53.075Z,8.62
2019-03-12T04:04:53.035Z,8.24
2019-03-12T04:05:52.991Z,7.96
2019-03-12T04:06:52.946Z,7.77
2019-03-12T04:07:52.902Z,7.96
2019-03-12T04:08:52.859Z,7.96
2019-03-12T04:09:52.822Z,8.34
2019-03-12T04:10:52.777Z,8.62
2019-03-12T04:11:52.726Z,8.91
2019-03-12T04:12:52.681Z,8.81
2019-03-12T04:13:52.635Z,8.24
2019-03-12T04:14:52.595Z,8.91
2019-03-12T04:15:52.566Z,8.62
2019-03-12T04:16:52.516Z,7.86
2019-03-12T04:17:52.470Z,7.57
2019-03-12T04:18:52.425Z,6.92
2019-03-12T04:19:52.379Z,6.92
2019-03-12T04:20:52.337Z,6.44
2019-03-12T04:21:52.297Z,5.40
2019-03-12T04:22:52.250Z,4.83
2019-03-12T04:23:52.207Z,4.83
2019-03-12T04:24:52.167Z,4.64
2019-03-12T04:25:52.123Z,4.07
2019-03-12T04:26:52.076Z,5.30
2019-03-12T04:27:52.035Z,4.93
2019-03-12T04:28:51.995Z,3.78
2019-03-12T04:29:51.950Z,3.31
2019-03-12T04:30:51.911Z,3.22
2019-03-12T04:31:51.859Z,2.46
2019-03-12T04:32:51.823Z,3.41
2019-03-12T04:33:51.772Z,3.31
2019-03-12T04:34:51.730Z,3.50
2019-03-12T04:35:51.697Z,3.41
2019-03-12T04:36:51.652Z,3.03
2019-03-12T04:37:51.604Z,1.89
2019-03-12T04:38:51.559Z,1.42
2019-03-12T04:39:51.528Z,0.76
2019-03-12T04:40:51.469Z,0.38
2019-03-12T04:41:51.433Z,0.47
2019-03-12T04:43:00.041Z,0.00
2019-03-12T04:44:55.775Z,0.00
2019-03-12T04:45:55.710Z,0.00
2019-03-12T04:46:55.671Z,0.00
2019-03-12T04:47:55.629Z,0.00
2019-03-12T04:48:55.584Z,0.00
2019-03-12T04:49:55.537Z,0.00
2019-03-12T04:50:55.491Z,0.00
2019-03-12T04:51:55.449Z,0.00
2019-03-12T04:52:55.403Z,0.00
2019-03-12T04:53:55.363Z,0.00
2019-03-12T04:54:55.319Z,0.00
2019-03-12T04:55:55.282Z,0.00
2019-03-12T04:56:55.232Z,0.00
2019-03-12T04:57:55.189Z,0.00
2019-03-12T04:58:55.147Z,0.00
2019-03-12T04:59:55.106Z,0.00
2019-03-12T05:00:55.065Z,0.00
2019-03-12T05:01:55.018Z,0.00
2019-03-12T05:02:54.972Z,0.00
2019-03-12T05:03:54.927Z,0.00
2019-03-12T05:04:54.884Z,0.00
2019-03-12T05:05:54.946Z,0.00
2019-03-12T05:06:54.801Z,0.00
2019-03-12T05:07:54.761Z,0.00
2019-03-12T05:08:54.717Z,0.00
2019-03-12T05:09:54.678Z,0.00
2019-03-12T05:10:54.629Z,0.00
2019-03-12T05:11:54.581Z,0.00
2019-03-12T05:12:54.557Z,0.00
2019-03-12T05:13:54.500Z,0.00
2019-03-12T05:14:54.457Z,0.00
2019-03-12T05:15:54.409Z,0.00
2019-03-12T05:16:54.366Z,0.00
2019-03-12T05:17:54.325Z,0.00
2019-03-12T05:18:54.285Z,0.00
2019-03-12T05:19:54.242Z,0.00
2019-03-12T05:20:54.200Z,0.00
2019-03-12T05:21:54.154Z,0.00
2019-03-12T05:22:54.108Z,0.00
2019-03-12T05:23:54.063Z,0.00
2019-03-12T05:24:54.020Z,0.00
2019-03-12T05:25:53.979Z,0.00
2019-03-12T05:26:53.938Z,0.00
2019-03-12T05:27:53.896Z,0.00
2019-03-12T05:28:53.853Z,0.00
2019-03-12T05:29:53.806Z,0.00
2019-03-12T05:30:53.766Z,0.00
2019-03-12T05:31:53.723Z,0.00
2019-03-12T05:32:53.682Z,0.00
2019-03-12T05:33:53.640Z,0.95
2019-03-12T05:34:53.590Z,1.23
2019-03-12T05:35:53.550Z,1.42
2019-03-12T05:36:53.502Z,2.37
2019-03-12T05:37:53.461Z,0.85
2019-03-12T05:38:53.419Z,1.89
2019-03-12T05:39:53.381Z,1.99
2019-03-12T05:40:53.335Z,2.08
2019-03-12T05:41:53.292Z,1.32
2019-03-12T05:42:53.245Z,3.03
2019-03-12T05:43:53.200Z,5.02
2019-03-12T05:44:53.167Z,5.78
2019-03-12T05:45:53.119Z,5.68
2019-03-12T05:46:53.072Z,5.30
2019-03-12T05:47:53.027Z,5.78
2019-03-12T05:48:52.984Z,6.45
2019-03-12T05:49:52.945Z,6.92
2019-03-12T05:50:52.901Z,7.01
2019-03-12T05:51:52.861Z,8.81
2019-03-12T05:52:52.816Z,9.29
2019-03-12T05:53:52.777Z,10.71
2019-03-12T05:54:52.726Z,10.80
2019-03-12T05:55:52.686Z,11.94
2019-03-12T05:56:52.643Z,12.41
2019-03-12T05:57:52.597Z,12.79
2019-03-12T05:58:52.559Z,13.46
2019-03-12T05:59:52.517Z,14.40
2019-03-12T06:00:52.469Z,14.97
2019-03-12T06:01:52.426Z,17.16
2019-03-12T06:02:52.390Z,18.29
2019-03-12T06:03:52.342Z,18.67
2019-03-12T06:04:52.300Z,17.91
2019-03-12T06:05:52.259Z,18.20
2019-03-12T06:06:52.209Z,18.48
2019-03-12T06:07:55.227Z,19.62
2019-03-12T06:08:52.127Z,19.81
2019-03-12T06:09:52.083Z,20.76
2019-03-12T06:10:52.044Z,21.04
2019-03-12T06:11:51.999Z,21.33
2019-03-12T06:12:51.957Z,21.80
2019-03-12T06:13:51.917Z,21.04
2019-03-12T06:14:51.866Z,20.09
2019-03-12T06:15:53.229Z,20.95
2019-03-12T06:16:51.785Z,21.33
2019-03-12T06:17:51.743Z,21.99
2019-03-12T06:18:51.697Z,23.41
2019-03-12T06:19:51.655Z,22.75
2019-03-12T06:20:51.611Z,21.80
2019-03-12T06:21:51.588Z,23.13
2019-03-12T06:22:51.528Z,23.32
2019-03-12T06:23:51.484Z,24.65
2019-03-12T06:24:51.440Z,25.40
2019-03-12T06:25:51.402Z,25.49
2019-03-12T06:26:51.351Z,25.59
2019-03-12T06:27:51.311Z,26.16
2019-03-12T06:28:51.268Z,26.82
2019-03-12T06:29:51.222Z,27.87
2019-03-12T06:30:51.187Z,27.20
2019-03-12T06:31:51.141Z,30.33
2019-03-12T06:32:51.101Z,30.80
2019-03-12T06:33:51.052Z,30.16
2019-03-12T06:34:51.014Z,30.80
2019-03-12T06:35:54.092Z,33.17
2019-03-12T06:36:50.927Z,33.76
2019-03-12T06:37:50.886Z,33.94
2019-03-12T06:38:50.837Z,36.04
2019-03-12T06:39:50.797Z,34.99
2019-03-12T06:40:50.753Z,35.75
2019-03-12T06:41:50.722Z,41.25
2019-03-12T06:42:50.673Z,41.92
2019-03-12T06:43:50.626Z,44.38
2019-03-12T06:44:50.586Z,43.34
2019-03-12T06:45:50.545Z,43.53
2019-03-12T06:46:50.495Z,43.53
2019-03-12T06:47:50.456Z,43.62
2019-03-12T06:48:50.414Z,44.01
2019-03-12T06:49:50.374Z,45.71
2019-03-12T06:50:50.324Z,46.19
2019-03-12T06:51:50.284Z,48.84
2019-03-12T06:52:50.247Z,48.84
2019-03-12T06:53:50.197Z,47.32
2019-03-12T06:54:50.169Z,49.88
2019-03-12T06:55:50.114Z,53.49
2019-03-12T06:56:50.073Z,48.84
2019-03-12T06:57:50.031Z,46.75
2019-03-12T06:58:49.987Z,46.94
2019-03-12T06:59:49.941Z,47.32
2019-03-12T07:00:49.899Z,47.42
2019-03-12T07:01:49.856Z,49.13
2019-03-12T07:02:49.818Z,47.23
2019-03-12T07:03:49.787Z,48.27
2019-03-12T07:04:49.728Z,49.22
2019-03-12T07:05:49.685Z,49.51
2019-03-12T07:06:49.678Z,48.46
2019-03-12T07:07:49.605Z,47.61
2019-03-12T07:08:49.560Z,49.13
2019-03-12T07:09:49.523Z,48.94
2019-03-12T07:10:49.522Z,47.80
2019-03-12T07:11:49.430Z,48.94
2019-03-12T07:12:49.388Z,47.04
2019-03-12T07:13:49.352Z,47.61
2019-03-12T07:14:49.308Z,48.46
2019-03-12T07:15:49.262Z,50.26
2019-03-12T07:16:49.220Z,51.03
2019-03-12T07:17:49.181Z,50.45
2019-03-12T07:18:49.131Z,49.13
2019-03-12T07:19:49.097Z,48.65
2019-03-12T07:20:49.051Z,47.13
2019-03-12T07:21:49.011Z,49.22
2019-03-12T07:22:48.962Z,50.83
2019-03-12T07:23:48.920Z,49.98
2019-03-12T07:24:48.886Z,49.51
2019-03-12T07:25:50.902Z,50.83
2019-03-12T07:26:48.799Z,47.99
2019-03-12T07:27:48.752Z,51.50
2019-03-12T07:28:50.571Z,50.55
2019-03-12T07:29:48.690Z,49.13
2019-03-12T07:30:48.622Z,49.98
2019-03-12T07:31:48.581Z,49.88
2019-03-12T07:32:48.539Z,49.69
2019-03-12T07:33:48.494Z,51.59
2019-03-12T07:34:48.457Z,49.13
2019-03-12T07:35:48.413Z,51.78
2019-03-12T07:36:48.369Z,50.74
2019-03-12T07:37:48.325Z,51.81
2019-03-12T07:38:48.288Z,51.03
2019-03-12T07:39:48.243Z,51.87
2019-03-12T07:40:48.210Z,52.47
2019-03-12T07:41:48.163Z,56.81
2019-03-12T07:42:48.112Z,54.56
2019-03-12T07:43:48.073Z,56.34
2019-03-12T07:44:48.030Z,56.34
2019-03-12T07:45:47.986Z,56.17
2019-03-12T07:46:47.949Z,57.03
2019-03-12T07:47:47.906Z,56.27
2019-03-12T07:48:47.864Z,56.05
2019-03-12T07:49:47.822Z,56.46
2019-03-12T07:50:47.772Z,59.02
2019-03-12T07:51:47.734Z,59.02
2019-03-12T07:52:47.698Z,61.49
2019-03-12T07:53:58.844Z,60.25
2019-03-12T07:54:47.604Z,58.26
2019-03-12T07:55:47.563Z,54.56
2019-03-12T07:56:47.526Z,59.30
2019-03-12T07:57:47.478Z,60.44
2019-03-12T07:58:47.441Z,61.11
2019-03-12T07:59:47.397Z,63.86
2019-03-12T08:00:47.355Z,63.39
2019-03-12T08:01:47.316Z,61.96
2019-03-12T08:02:47.265Z,62.53
2019-03-12T08:03:47.225Z,64.05
2019-03-12T08:04:47.183Z,62.43
2019-03-12T08:05:47.140Z,63.76
2019-03-12T08:06:47.102Z,64.71
2019-03-12T08:07:47.061Z,64.33
2019-03-12T08:08:47.015Z,63.57
2019-03-12T08:09:46.971Z,65.85
2019-03-12T08:10:46.935Z,65.00
2019-03-12T08:11:46.891Z,65.66
2019-03-12T08:12:46.850Z,65.19
2019-03-12T08:13:46.808Z,63.95
2019-03-12T08:14:46.759Z,66.52
2019-03-12T08:15:46.719Z,63.48
2019-03-12T08:16:46.679Z,67.56
2019-03-12T08:17:46.636Z,67.75
2019-03-12T08:18:46.597Z,66.99
2019-03-12T08:19:46.555Z,67.65
2019-03-12T08:20:46.515Z,67.27
2019-03-12T08:21:49.547Z,63.20
2019-03-12T08:22:46.422Z,66.14
2019-03-12T08:23:46.382Z,67.46
2019-03-12T08:24:46.343Z,66.71
2019-03-12T08:25:46.302Z,65.75
2019-03-12T08:26:46.255Z,67.65
2019-03-12T08:27:46.214Z,64.52
2019-03-12T08:28:46.172Z,64.71
2019-03-12T08:29:46.135Z,66.14
2019-03-12T08:30:46.093Z,63.86
2019-03-12T08:31:46.049Z,66.23
2019-03-12T08:32:46.008Z,67.27
2019-03-12T08:33:50.646Z,69.46
2019-03-12T08:34:45.921Z,66.42
2019-03-12T08:35:45.878Z,69.46
2019-03-12T08:36:45.836Z,68.04
2019-03-12T08:37:45.793Z,68.32
2019-03-12T08:38:46.469Z,65.85
2019-03-12T08:39:45.712Z,68.13
2019-03-12T08:40:52.353Z,68.70
2019-03-12T08:41:45.624Z,65.00
2019-03-12T08:42:54.603Z,70.03
2019-03-12T08:43:45.545Z,70.03
2019-03-12T08:44:45.505Z,65.75
2019-03-12T08:45:48.486Z,67.65
2019-03-12T08:46:45.413Z,66.14
2019-03-12T08:47:45.374Z,69.36
2019-03-12T08:48:45.337Z,70.98
2019-03-12T08:49:45.290Z,70.69
2019-03-12T08:50:45.255Z,74.20
2019-03-12T08:51:45.208Z,74.87
2019-03-12T08:52:45.166Z,73.63
2019-03-12T08:53:45.127Z,70.03
2019-03-12T08:54:54.282Z,74.30
2019-03-12T08:55:45.038Z,72.97
2019-03-12T08:56:45.000Z,72.06
2019-03-12T08:57:45.037Z,72.81
2019-03-12T08:58:44.912Z,75.28
2019-03-12T08:59:44.883Z,71.67
2019-03-12T09:00:44.840Z,73.86
2019-03-12T09:01:47.536Z,74.62
2019-03-12T09:02:44.753Z,76.61
2019-03-12T09:03:44.705Z,78.03
2019-03-12T09:04:44.670Z,78.03
2019-03-12T09:05:44.626Z,76.04
2019-03-12T09:06:44.578Z,78.99
2019-03-12T09:07:44.537Z,76.61
2019-03-12T09:08:44.495Z,81.65
2019-03-12T09:09:44.453Z,79.36
2019-03-12T09:10:44.416Z,77.37
2019-03-12T09:11:44.377Z,81.93
2019-03-12T09:12:44.328Z,80.41
2019-03-12T09:13:44.285Z,81.55
2019-03-12T09:14:44.251Z,82.31
2019-03-12T09:15:44.212Z,83.92
2019-03-12T09:16:44.163Z,85.72
2019-03-12T09:17:44.124Z,87.05
2019-03-12T09:18:44.081Z,85.06
2019-03-12T09:19:44.038Z,79.65
2019-03-12T09:20:43.999Z,82.97
2019-03-12T09:21:43.953Z,85.06
2019-03-12T09:22:43.918Z,85.35
2019-03-12T09:23:43.882Z,85.72
2019-03-12T09:24:43.834Z,81.55
2019-03-12T09:25:43.796Z,84.68
2019-03-12T09:26:43.743Z,80.98
2019-03-12T09:27:43.706Z,85.72
2019-03-12T09:28:43.663Z,82.78
2019-03-12T09:29:43.625Z,86.39
2019-03-12T09:30:43.578Z,86.87
2019-03-12T09:31:43.544Z,83.73
2019-03-12T09:32:43.495Z,82.40
2019-03-12T09:33:43.451Z,84.40
2019-03-12T09:34:43.415Z,89.53
2019-03-12T09:35:43.373Z,88.01
2019-03-12T09:36:43.331Z,88.57
2019-03-12T09:37:43.291Z,88.29
2019-03-12T09:38:43.243Z,85.44
2019-03-12T09:39:43.204Z,86.58
2019-03-12T09:40:43.163Z,84.97
2019-03-12T09:41:43.119Z,84.49
2019-03-12T09:42:43.083Z,87.62
2019-03-12T09:57:19.433Z,89.24
2019-03-12T09:58:19.339Z,88.10
2019-03-12T09:59:19.291Z,87.34
2019-03-12T10:00:19.252Z,87.05
2019-03-12T10:01:19.204Z,84.49
2019-03-12T10:02:19.161Z,91.14
2019-03-12T10:03:19.112Z,90.76
2019-03-12T10:04:19.128Z,85.72
2019-03-12T10:05:19.027Z,90.38
2019-03-12T10:06:18.988Z,91.52
2019-03-12T10:07:18.945Z,90.66
2019-03-12T10:08:18.905Z,88.95
2019-03-12T10:09:18.875Z,88.20
2019-03-12T10:10:18.814Z,88.01
2019-03-12T10:11:18.771Z,90.80
2019-03-12T10:12:18.726Z,85.11
2019-03-12T10:13:18.688Z,87.48
2019-03-12T10:14:18.646Z,88.62
2019-03-12T10:15:18.605Z,91.47
2019-03-12T10:16:18.557Z,91.28
2019-03-12T10:17:18.517Z,90.99
2019-03-12T10:18:18.481Z,89.95
2019-03-12T10:19:18.437Z,91.75
2019-03-12T10:20:18.404Z,89.19
2019-03-12T10:21:18.350Z,88.71
2019-03-12T10:22:18.307Z,91.85
2019-03-12T10:23:18.266Z,88.81
2019-03-12T10:24:18.237Z,91.94
2019-03-12T10:25:18.182Z,91.85
2019-03-12T10:26:18.142Z,90.71
2019-03-12T10:27:18.111Z,91.85
2019-03-12T10:28:18.062Z,90.14
2019-03-12T10:29:18.020Z,88.62
2019-03-12T10:30:17.973Z,91.94
2019-03-12T10:31:17.939Z,92.13
2019-03-12T10:32:17.895Z,92.13
2019-03-12T10:33:17.851Z,91.47
2019-03-12T10:34:28.874Z,94.32
2019-03-12T10:35:17.765Z,92.80
2019-03-12T10:36:17.820Z,92.85
2019-03-12T10:37:17.688Z,93.04
2019-03-12T10:38:17.649Z,91.52
2019-03-12T10:39:17.605Z,92.18
2019-03-12T10:40:17.565Z,91.89
2019-03-12T10:41:17.521Z,93.99
2019-03-12T10:42:17.483Z,97.03
2019-03-12T10:43:26.112Z,92.85
2019-03-12T10:45:21.883Z,98.74
2019-03-12T10:46:21.842Z,97.41
2019-03-12T10:47:21.772Z,94.65
2019-03-12T10:48:21.742Z,93.51
2019-03-12T10:49:21.710Z,96.55
2019-03-12T10:50:21.652Z,98.83
2019-03-12T10:51:21.613Z,98.93
2019-03-12T10:52:21.573Z,97.31
2019-03-12T10:53:21.530Z,96.93
2019-03-12T10:54:21.487Z,97.12
2019-03-12T10:55:21.446Z,99.99
2019-03-12T10:56:21.412Z,97.45
2019-03-12T10:57:21.684Z,97.55
2019-03-12T10:58:21.338Z,99.99
2019-03-12T10:59:21.281Z,99.99
2019-03-12T11:00:21.239Z,99.99
2019-03-12T11:01:21.202Z,98.93
2019-03-12T11:02:21.163Z,98.93
2019-03-12T11:03:21.126Z,96.22
2019-03-12T11:04:21.086Z,98.60
2019-03-12T11:05:21.045Z,99.55
2019-03-12T11:06:20.996Z,99.84
2019-03-12T11:07:20.955Z,99.99
2019-03-12T11:08:20.912Z,99.99
2019-03-12T11:09:20.876Z,98.50
2019-03-12T11:10:20.852Z,98.17
2019-03-12T11:11:20.796Z,99.99
2019-03-12T11:12:20.861Z,99.99
2019-03-12T11:13:20.714Z,99.99
2019-03-12T11:14:20.674Z,99.99
2019-03-12T11:15:20.635Z,99.99
2019-03-12T11:16:20.607Z,98.03
2019-03-12T11:17:20.554Z,99.99
2019-03-12T11:18:20.508Z,99.99
2019-03-12T11:19:20.466Z,99.99
2019-03-12T11:20:20.428Z,99.99
2019-03-12T11:21:20.387Z,99.99
2019-03-12T11:22:20.347Z,96.69
2019-03-12T11:23:20.308Z,99.99
2019-03-12T11:24:20.272Z,99.74
2019-03-12T11:25:27.068Z,99.99
2019-03-12T11:26:20.186Z,99.99
2019-03-12T11:27:20.140Z,99.99
2019-03-12T11:28:20.107Z,99.99
2019-03-12T11:29:20.067Z,99.99
2019-03-12T11:30:20.026Z,99.99
2019-03-12T11:31:19.986Z,99.99
2019-03-12T11:32:19.945Z,99.99
2019-03-12T11:33:19.935Z,99.99
2019-03-12T11:34:19.866Z,99.99
2019-03-12T11:35:19.826Z,99.99
2019-03-12T11:36:19.825Z,99.69
2019-03-12T11:37:19.769Z,99.99
2019-03-12T11:38:19.741Z,99.99
2019-03-12T11:39:19.662Z,99.99
2019-03-12T11:40:19.621Z,99.99
2019-03-12T11:41:19.582Z,99.99
2019-03-12T11:42:19.588Z,99.99
2019-03-12T11:43:19.509Z,99.99
2019-03-12T11:44:19.461Z,99.99
2019-03-12T11:45:20.690Z,99.99
2019-03-12T11:46:19.385Z,99.99
2019-03-12T11:47:19.343Z,99.99
2019-03-12T11:48:19.305Z,99.99
2019-03-12T11:49:19.276Z,99.99
2019-03-12T11:50:19.237Z,99.99
2019-03-12T11:51:19.181Z,99.99
2019-03-12T11:52:19.139Z,99.99
2019-03-12T11:53:19.100Z,99.99
2019-03-12T11:54:19.066Z,99.99
2019-03-12T11:55:19.059Z,99.99
2019-03-12T11:56:18.984Z,99.99
2019-03-12T11:57:18.957Z,99.99
2019-03-12T11:58:18.899Z,99.99
2019-03-12T11:59:18.861Z,99.99
2019-03-12T12:00:19.544Z,99.99
2019-03-12T12:01:18.781Z,99.99
2019-03-12T12:02:18.740Z,99.99
2019-03-12T12:03:18.696Z,99.99
2019-03-12T12:04:18.656Z,99.99
2019-03-12T12:05:18.621Z,99.99
2019-03-12T12:06:18.581Z,99.99
2019-03-12T12:07:18.544Z,99.99
2019-03-12T12:08:18.517Z,99.99
2019-03-12T12:09:18.464Z,99.99
2019-03-12T12:10:18.438Z,99.99
2019-03-12T12:11:18.378Z,99.99
2019-03-12T12:12:18.336Z,99.99
2019-03-12T12:13:18.306Z,99.99
2019-03-12T12:14:18.331Z,99.99
2019-03-12T12:15:18.241Z,99.99
2019-03-12T12:16:18.182Z,99.99
2019-03-12T12:17:18.138Z,99.99
2019-03-12T12:18:18.106Z,99.99
2019-03-12T12:19:18.067Z,99.99
2019-03-12T12:20:28.904Z,99.99
2019-03-12T12:21:18.046Z,99.99
2019-03-12T12:22:17.940Z,99.99
2019-03-12T12:23:17.912Z,99.99
2019-03-12T12:24:17.854Z,99.99
2019-03-12T12:25:17.820Z,99.99
2019-03-12T12:26:17.779Z,99.99
2019-03-12T12:27:17.739Z,99.99
2019-03-12T12:28:17.705Z,99.99
2019-03-12T12:29:17.671Z,99.99
2019-03-12T12:30:17.617Z,99.99
2019-03-12T12:31:17.574Z,99.99
2019-03-12T12:32:17.542Z,99.99
2019-03-12T12:33:17.501Z,99.99
2019-03-12T12:34:17.456Z,99.99
2019-03-12T12:35:17.417Z,99.99
2019-03-12T12:36:17.373Z,98.65
2019-03-12T12:37:17.337Z,99.60
2019-03-12T12:38:17.308Z,98.27
2019-03-12T12:39:17.260Z,99.02
2019-03-12T12:40:17.220Z,99.31
2019-03-12T12:41:17.177Z,96.60
2019-03-12T12:42:17.137Z,96.74
2019-03-12T12:43:17.093Z,93.84
2019-03-12T12:44:17.054Z,91.61
2019-03-12T12:45:17.016Z,93.32
2019-03-12T12:46:16.980Z,98.17
2019-03-12T12:47:16.941Z,98.41
2019-03-12T12:48:16.895Z,96.08
2019-03-12T12:49:16.860Z,95.27
2019-03-12T12:50:16.825Z,89.37
2019-03-12T12:51:16.782Z,94.32
2019-03-12T12:52:16.739Z,89.65
2019-03-12T12:53:16.697Z,87.08
2019-03-12T12:54:16.657Z,88.42
2019-03-12T12:55:16.611Z,86.90
2019-03-12T12:56:16.573Z,88.79
2019-03-12T12:57:16.537Z,84.80
2019-03-12T12:58:16.497Z,79.85
2019-03-12T12:59:16.471Z,81.56
2019-03-12T13:00:16.421Z,81.76
2019-03-12T13:01:16.384Z,82.80
2019-03-12T13:02:16.336Z,84.04
2019-03-12T13:03:16.293Z,82.80
2019-03-12T13:04:16.265Z,82.99
2019-03-12T13:05:16.217Z,82.80
2019-03-12T13:06:16.183Z,82.32
2019-03-12T13:07:16.136Z,79.66
2019-03-12T13:08:16.108Z,75.57
2019-03-12T13:09:16.061Z,73.76
2019-03-12T13:10:16.022Z,78.61
2019-03-12T13:11:15.987Z,78.04
2019-03-12T13:12:15.945Z,75.57
2019-03-12T13:13:15.904Z,75.38
2019-03-12T13:14:15.865Z,75.28
2019-03-12T13:15:15.818Z,72.90
2019-03-12T13:16:24.427Z,72.71
2019-03-12T13:17:15.743Z,72.81
2019-03-12T13:18:16.724Z,72.81
2019-03-12T13:19:15.694Z,72.52
2019-03-12T13:20:15.618Z,74.71
2019-03-12T13:21:15.581Z,79.38
2019-03-12T13:22:15.542Z,75.38
2019-03-12T13:23:15.505Z,74.52
2019-03-12T13:24:15.468Z,76.42
2019-03-12T13:25:15.423Z,76.81
2019-03-12T13:26:15.382Z,74.62
2019-03-12T13:27:15.338Z,75.09
2019-03-12T13:28:15.302Z,75.38